Time;durP1;ratioP1;P1;durP2;ratioP2;P2;SDS_P1;SDS_P2;PMS_P1;PMS_P2;Temp;Humidity;BMP_temperature;BMP_pressure;BME280_temperature;BME280_humidity;BME280_pressure;Samples;Min_cycle;Max_cycle;Signal;HPM_P1;HPM_P2
2022/02/19 00:01:06;;;;;;;1.48;1.10;;;;;;;;;;5066873;28;20028;-75
2022/02/19 00:03:32;;;;;;;1.20;0.90;;;;;;;;;;5051328;28;20051;-75
2022/02/19 00:05:58;;;;;;;1.52;0.98;;;;;;;;;;5034772;28;20088;-75
2022/02/19 00:08:25;;;;;;;2.13;1.15;;;;;;;;;;5052932;28;20029;-75
2022/02/19 00:10:51;;;;;;;1.23;1.05;;;;;;;;;;5053007;28;20029;-75
2022/02/19 00:13:17;;;;;;;1.40;1.00;;;;;;;;;;5052018;28;20048;-75
2022/02/19 00:15:43;;;;;;;1.40;0.90;;;;;;;;;;5052931;28;20037;-75
2022/02/19 00:18:11;;;;;;;1.63;0.90;;;;;;;;;;5052439;28;20078;-75
2022/02/19 00:20:37;;;;;;;1.90;0.82;;;;;;;;;;5066888;28;20055;-75
2022/02/19 00:23:03;;;;;;;0.88;0.75;;;;;;;;;;5092761;28;20389;-75
2022/02/19 00:25:29;;;;;;;1.23;0.90;;;;;;;;;;5074904;28;20030;-75
2022/02/19 00:27:55;;;;;;;1.48;0.95;;;;;;;;;;5092643;28;20031;-75
2022/02/19 00:30:21;;;;;;;1.13;0.70;;;;;;;;;;5093204;28;20035;-75
2022/02/19 00:32:48;;;;;;;1.33;0.82;;;;;;;;;;5092433;28;20023;-75
2022/02/19 00:35:14;;;;;;;1.52;1.02;;;;;;;;;;5092765;28;20024;-75
2022/02/19 00:37:40;;;;;;;0.90;0.70;;;;;;;;;;5072278;28;20036;-75
2022/02/19 00:40:08;;;;;;;0.80;0.70;;;;;;;;;;5072658;28;20024;-75
2022/02/19 00:42:34;;;;;;;0.75;0.70;;;;;;;;;;5082754;28;20020;-75
2022/02/19 00:45:00;;;;;;;1.13;0.70;;;;;;;;;;5092453;28;20031;-75
2022/02/19 00:47:26;;;;;;;0.80;0.70;;;;;;;;;;5092499;28;20035;-75
2022/02/19 00:49:52;;;;;;;0.60;0.55;;;;;;;;;;5092953;28;20022;-75
2022/02/19 00:52:18;;;;;;;1.00;0.80;;;;;;;;;;5091937;28;20094;-75
2022/02/19 00:54:44;;;;;;;0.80;0.70;;;;;;;;;;5092459;28;20545;-75
2022/02/19 00:57:10;;;;;;;1.45;0.82;;;;;;;;;;5092341;28;20055;-75
2022/02/19 00:59:36;;;;;;;1.67;0.88;;;;;;;;;;5092539;28;20127;-75
2022/02/19 01:02:02;;;;;;;1.02;0.77;;;;;;;;;;5073643;28;20020;-75
2022/02/19 01:04:28;;;;;;;1.40;0.85;;;;;;;;;;5092437;28;20024;-75
2022/02/19 01:06:54;;;;;;;1.13;0.70;;;;;;;;;;5092537;28;20020;-75
2022/02/19 01:09:21;;;;;;;0.95;0.75;;;;;;;;;;5092570;28;20078;-75
2022/02/19 01:11:47;;;;;;;0.93;0.75;;;;;;;;;;5092089;28;20063;-75
2022/02/19 01:14:13;;;;;;;0.90;0.77;;;;;;;;;;5092328;28;20078;-75
2022/02/19 01:16:39;;;;;;;1.15;0.70;;;;;;;;;;5074184;28;20024;-75
2022/02/19 01:19:05;;;;;;;1.38;0.88;;;;;;;;;;5074037;28;20085;-75
2022/02/19 01:21:32;;;;;;;1.35;0.88;;;;;;;;;;5076896;28;20020;-75
2022/02/19 01:23:58;;;;;;;0.50;0.50;;;;;;;;;;5053866;28;20027;-75
2022/02/19 01:26:24;;;;;;;0.60;0.60;;;;;;;;;;5072432;28;20426;-75
2022/02/19 01:28:50;;;;;;;0.57;0.50;;;;;;;;;;5071713;28;20384;-75
2022/02/19 01:31:16;;;;;;;1.30;0.75;;;;;;;;;;5074372;28;20545;-75
2022/02/19 01:33:42;;;;;;;1.23;0.60;;;;;;;;;;5075317;28;20123;-75
2022/02/19 01:36:08;;;;;;;1.25;0.60;;;;;;;;;;5083236;28;20046;-75
2022/02/19 01:38:34;;;;;;;0.73;0.70;;;;;;;;;;5095905;28;20032;-75
2022/02/19 01:41:00;;;;;;;1.10;0.63;;;;;;;;;;5077755;28;20048;-75
2022/02/19 01:43:26;;;;;;;0.90;0.60;;;;;;;;;;5076505;28;20048;-75
2022/02/19 01:45:53;;;;;;;0.60;0.50;;;;;;;;;;5076023;28;20383;-75
2022/02/19 01:48:22;;;;;;;1.13;0.52;;;;;;;;;;5075494;28;20445;-75
2022/02/19 01:50:48;;;;;;;1.00;0.60;;;;;;;;;;5075928;28;20425;-75
2022/02/19 01:53:16;;;;;;;0.55;0.45;;;;;;;;;;5075061;28;20237;-76
2022/02/19 01:55:42;;;;;;;0.68;0.47;;;;;;;;;;5075753;28;20029;-76
2022/02/19 01:58:08;;;;;;;0.70;0.60;;;;;;;;;;5074963;28;20032;-76
2022/02/19 02:00:34;;;;;;;0.82;0.40;;;;;;;;;;5071882;28;20017;-76
2022/02/19 02:03:01;;;;;;;0.85;0.50;;;;;;;;;;5062964;28;20029;-76
2022/02/19 02:05:27;;;;;;;0.55;0.50;;;;;;;;;;5075005;28;20067;-76
2022/02/19 02:07:53;;;;;;;0.70;0.60;;;;;;;;;;5075673;28;20028;-76
2022/02/19 02:10:19;;;;;;;0.50;0.40;;;;;;;;;;5075266;28;20503;-76
2022/02/19 02:12:45;;;;;;;0.40;0.40;;;;;;;;;;5075142;28;20039;-74
2022/02/19 02:15:30;;;;;;;1.23;0.60;;;;;;;;;;5075069;28;20074;-74
2022/02/19 02:17:57;;;;;;;1.38;0.52;;;;;;;;;;5057035;28;20070;-74
2022/02/19 02:20:23;;;;;;;1.58;0.68;;;;;;;;;;5080235;28;20065;-74
2022/02/19 02:22:49;;;;;;;0.70;0.70;;;;;;;;;;5095508;28;20303;-74
2022/02/19 02:25:15;;;;;;;1.17;0.60;;;;;;;;;;5094936;28;20020;-74
2022/02/19 02:27:41;;;;;;;1.70;0.70;;;;;;;;;;5095235;28;20058;-74
2022/02/19 02:30:08;;;;;;;0.50;0.50;;;;;;;;;;5095141;28;20028;-74
2022/02/19 02:32:34;;;;;;;1.17;0.80;;;;;;;;;;5094631;28;20039;-74
2022/02/19 02:35:00;;;;;;;2.65;0.73;;;;;;;;;;5094931;28;20077;-74
2022/02/19 02:37:26;;;;;;;1.00;0.80;;;;;;;;;;5076574;28;20032;-74
2022/02/19 02:39:53;;;;;;;0.85;0.50;;;;;;;;;;5074383;28;20029;-74
2022/02/19 02:42:20;;;;;;;1.75;0.70;;;;;;;;;;5081626;28;20051;-74
2022/02/19 02:44:47;;;;;;;1.42;0.70;;;;;;;;;;5094486;28;20461;-74
2022/02/19 02:47:13;;;;;;;1.02;0.70;;;;;;;;;;5095140;28;20462;-74
2022/02/19 02:49:40;;;;;;;0.68;0.50;;;;;;;;;;5094541;28;20024;-74
2022/02/19 02:52:10;;;;;;;0.85;0.50;;;;;;;;;;5094283;28;20229;-74
2022/02/19 02:54:37;;;;;;;1.30;0.80;;;;;;;;;;5094278;28;20110;-74
2022/02/19 02:57:03;;;;;;;0.88;0.60;;;;;;;;;;5094838;28;20028;-74
2022/02/19 02:59:29;;;;;;;1.13;0.65;;;;;;;;;;5094196;28;20036;-74
2022/02/19 03:01:55;;;;;;;1.02;0.60;;;;;;;;;;5094006;28;20505;-74
2022/02/19 03:04:22;;;;;;;0.90;0.55;;;;;;;;;;5093790;28;20402;-75
2022/02/19 03:06:48;;;;;;;0.93;0.70;;;;;;;;;;5094068;28;20108;-75
2022/02/19 03:09:14;;;;;;;0.90;0.60;;;;;;;;;;5093748;28;20024;-75
2022/02/19 03:11:40;;;;;;;1.77;0.73;;;;;;;;;;5075232;28;20028;-75
2022/02/19 03:14:06;;;;;;;1.00;0.70;;;;;;;;;;5093959;28;20509;-77
2022/02/19 03:16:33;;;;;;;1.33;0.70;;;;;;;;;;5093755;28;20024;-75
2022/02/19 03:18:59;;;;;;;0.65;0.40;;;;;;;;;;5093934;28;20115;-75
2022/02/19 03:21:25;;;;;;;1.23;0.60;;;;;;;;;;5079394;28;20027;-75
2022/02/19 03:23:52;;;;;;;1.08;0.65;;;;;;;;;;5073555;28;20098;-75
2022/02/19 03:26:18;;;;;;;1.88;0.65;;;;;;;;;;5055483;28;20495;-75
2022/02/19 03:28:44;;;;;;;1.20;0.60;;;;;;;;;;5073501;28;20064;-76
2022/02/19 03:31:11;;;;;;;0.93;0.50;;;;;;;;;;5073462;28;20032;-75
2022/02/19 03:33:37;;;;;;;1.10;0.60;;;;;;;;;;5073011;28;20085;-75
2022/02/19 03:36:03;;;;;;;1.73;0.68;;;;;;;;;;5079753;28;20027;-75
2022/02/19 03:38:29;;;;;;;1.13;0.65;;;;;;;;;;5093708;28;20027;-75
2022/02/19 03:40:55;;;;;;;1.35;0.70;;;;;;;;;;5075965;28;20044;-75
2022/02/19 03:43:21;;;;;;;2.03;0.73;;;;;;;;;;5075892;28;20028;-75
2022/02/19 03:45:50;;;;;;;1.27;0.73;;;;;;;;;;5073282;28;20066;-76
2022/02/19 03:48:16;;;;;;;1.50;0.82;;;;;;;;;;5073398;28;20032;-76
2022/02/19 03:50:42;;;;;;;1.88;1.10;;;;;;;;;;5073105;28;20052;-76
2022/02/19 03:53:08;;;;;;;1.38;0.68;;;;;;;;;;5072916;28;20040;-76
2022/02/19 03:55:35;;;;;;;1.90;0.75;;;;;;;;;;5072855;28;20028;-76
2022/02/19 03:58:02;;;;;;;1.17;0.68;;;;;;;;;;5073053;28;20024;-76
2022/02/19 04:00:28;;;;;;;1.88;0.75;;;;;;;;;;5072817;28;20017;-76
2022/02/19 04:02:54;;;;;;;1.42;0.70;;;;;;;;;;5073003;28;20479;-76
2022/02/19 04:05:20;;;;;;;1.52;0.80;;;;;;;;;;5072584;28;20044;-76
2022/02/19 04:07:47;;;;;;;1.77;0.88;;;;;;;;;;5072988;28;20111;-76
2022/02/19 04:10:14;;;;;;;2.25;0.80;;;;;;;;;;5072842;28;20441;-76
2022/02/19 04:12:40;;;;;;;0.95;0.55;;;;;;;;;;5073198;28;20483;-76
2022/02/19 04:15:06;;;;;;;1.90;0.90;;;;;;;;;;5072517;28;20041;-75
2022/02/19 04:17:32;;;;;;;0.93;0.50;;;;;;;;;;5072353;28;20032;-75
2022/02/19 04:19:58;;;;;;;1.20;0.50;;;;;;;;;;5074248;28;20487;-75
2022/02/19 04:22:24;;;;;;;1.55;0.65;;;;;;;;;;5092365;28;20058;-75
2022/02/19 04:24:51;;;;;;;1.23;0.70;;;;;;;;;;5092810;28;20514;-75
2022/02/19 04:27:18;;;;;;;1.25;0.77;;;;;;;;;;5092654;28;20036;-75
2022/02/19 04:29:44;;;;;;;1.33;0.68;;;;;;;;;;5092830;28;20016;-75
2022/02/19 04:32:11;;;;;;;4.05;0.90;;;;;;;;;;5092276;28;20422;-76
2022/02/19 04:34:37;;;;;;;1.23;0.52;;;;;;;;;;5092874;28;20509;-75
2022/02/19 04:37:03;;;;;;;2.22;0.85;;;;;;;;;;5077685;28;20053;-75
2022/02/19 04:39:29;;;;;;;2.50;0.75;;;;;;;;;;5072260;28;20028;-75
2022/02/19 04:41:56;;;;;;;1.60;0.65;;;;;;;;;;5077460;28;20021;-75
2022/02/19 04:44:22;;;;;;;1.48;0.68;;;;;;;;;;5074445;28;20024;-75
2022/02/19 04:46:48;;;;;;;1.42;0.70;;;;;;;;;;5092180;28;20031;-75
2022/02/19 04:49:14;;;;;;;2.88;0.93;;;;;;;;;;5092687;28;20089;-75
2022/02/19 04:51:40;;;;;;;1.58;0.70;;;;;;;;;;5091990;28;20435;-75
2022/02/19 04:54:06;;;;;;;2.33;0.93;;;;;;;;;;5092451;28;20063;-75
2022/02/19 04:56:33;;;;;;;1.85;0.80;;;;;;;;;;5092258;28;20421;-75
2022/02/19 04:59:02;;;;;;;1.48;0.68;;;;;;;;;;5092686;28;20031;-75
2022/02/19 05:01:28;;;;;;;1.42;0.60;;;;;;;;;;5091353;28;20030;-75
2022/02/19 05:03:54;;;;;;;2.80;0.68;;;;;;;;;;5092469;28;20065;-75
2022/02/19 05:06:21;;;;;;;2.13;0.70;;;;;;;;;;5094703;28;20043;-75
2022/02/19 05:08:47;;;;;;;1.90;0.75;;;;;;;;;;5096605;28;20063;-75
2022/02/19 05:11:13;;;;;;;1.40;0.70;;;;;;;;;;5096603;28;20486;-75
2022/02/19 05:13:40;;;;;;;2.00;0.77;;;;;;;;;;5096464;28;20394;-75
2022/02/19 05:16:06;;;;;;;1.90;0.60;;;;;;;;;;5096045;28;20051;-75
2022/02/19 05:18:32;;;;;;;1.45;0.57;;;;;;;;;;5096470;28;20020;-75
2022/02/19 05:20:58;;;;;;;1.27;0.57;;;;;;;;;;5085875;28;20024;-75
2022/02/19 05:23:24;;;;;;;1.83;0.80;;;;;;;;;;5075468;28;20027;-75
2022/02/19 05:25:51;;;;;;;1.63;0.60;;;;;;;;;;5075850;28;20025;-75
2022/02/19 05:28:17;;;;;;;1.92;0.80;;;;;;;;;;5075858;28;20039;-75
2022/02/19 05:30:43;;;;;;;1.88;0.70;;;;;;;;;;5075691;28;20053;-75
2022/02/19 05:33:09;;;;;;;1.58;0.73;;;;;;;;;;5075554;28;20074;-75
2022/02/19 05:35:35;;;;;;;2.80;0.95;;;;;;;;;;5060431;28;20063;-75
2022/02/19 05:38:01;;;;;;;1.58;0.52;;;;;;;;;;5096041;28;20417;-75
2022/02/19 05:40:27;;;;;;;1.98;0.90;;;;;;;;;;5095861;28;20459;-75
2022/02/19 05:42:53;;;;;;;2.05;0.70;;;;;;;;;;5081996;28;20044;-75
2022/02/19 05:45:19;;;;;;;2.58;0.93;;;;;;;;;;5075776;28;20032;-76
2022/02/19 05:47:45;;;;;;;1.85;0.70;;;;;;;;;;5075663;28;20050;-75
2022/02/19 05:50:11;;;;;;;2.80;0.80;;;;;;;;;;5075847;28;20035;-75
2022/02/19 05:52:38;;;;;;;1.30;0.55;;;;;;;;;;5057118;28;20445;-75
2022/02/19 05:55:04;;;;;;;2.67;0.90;;;;;;;;;;5057495;28;20121;-75
2022/02/19 05:57:30;;;;;;;2.47;0.63;;;;;;;;;;5075279;28;20033;-73
2022/02/19 05:59:56;;;;;;;3.90;0.98;;;;;;;;;;5075555;28;20029;-73
2022/02/19 06:02:22;;;;;;;2.35;1.10;;;;;;;;;;5074574;28;20025;-73
2022/02/19 06:04:49;;;;;;;1.88;0.90;;;;;;;;;;5075167;28;20114;-73
2022/02/19 06:07:15;;;;;;;2.33;0.88;;;;;;;;;;5074856;28;20029;-73
2022/02/19 06:09:41;;;;;;;3.00;1.00;;;;;;;;;;5075186;28;20052;-73
2022/02/19 06:12:08;;;;;;;0.90;0.55;;;;;;;;;;5074441;28;20056;-73
2022/02/19 06:14:34;;;;;;;1.48;0.70;;;;;;;;;;5074940;28;20056;-73
2022/02/19 06:17:02;;;;;;;2.78;1.15;;;;;;;;;;5056635;28;20013;-73
2022/02/19 06:19:28;;;;;;;2.75;1.10;;;;;;;;;;5074996;28;20032;-73
2022/02/19 06:21:54;;;;;;;1.73;0.75;;;;;;;;;;5091835;28;20089;-73
2022/02/19 06:24:20;;;;;;;1.70;0.80;;;;;;;;;;5095555;28;20386;-75
2022/02/19 06:26:46;;;;;;;3.08;1.08;;;;;;;;;;5095046;28;20490;-75
2022/02/19 06:29:12;;;;;;;1.77;0.77;;;;;;;;;;5094778;28;20024;-75
2022/02/19 06:31:38;;;;;;;4.32;1.05;;;;;;;;;;5094478;28;20039;-75
2022/02/19 06:34:04;;;;;;;4.00;1.23;;;;;;;;;;5094926;28;20028;-75
2022/02/19 06:36:30;;;;;;;2.88;1.00;;;;;;;;;;5084307;28;20069;-75
2022/02/19 06:38:56;;;;;;;3.10;0.90;;;;;;;;;;5074719;28;20029;-75
2022/02/19 06:41:22;;;;;;;3.13;1.15;;;;;;;;;;5075009;28;20021;-75
2022/02/19 06:43:49;;;;;;;1.90;0.88;;;;;;;;;;5076729;28;20028;-75
2022/02/19 06:46:15;;;;;;;2.08;0.90;;;;;;;;;;5094918;28;20070;-75
2022/02/19 06:48:41;;;;;;;3.67;1.10;;;;;;;;;;5094962;28;20028;-75
2022/02/19 06:51:07;;;;;;;1.83;0.80;;;;;;;;;;5076377;28;20024;-75
2022/02/19 06:53:33;;;;;;;1.73;0.70;;;;;;;;;;5093911;28;20028;-75
2022/02/19 06:56:01;;;;;;;2.88;0.80;;;;;;;;;;5094494;28;20437;-75
2022/02/19 06:58:27;;;;;;;2.45;1.05;;;;;;;;;;5094137;28;20039;-75
2022/02/19 07:00:53;;;;;;;2.47;1.00;;;;;;;;;;5094817;28;20024;-75
2022/02/19 07:03:20;;;;;;;1.55;0.88;;;;;;;;;;5094143;28;20027;-75
2022/02/19 07:05:51;;;;;;;3.08;0.88;;;;;;;;;;5094291;28;20048;-75
2022/02/19 07:08:17;;;;;;;1.80;0.75;;;;;;;;;;5094090;28;20032;-75
2022/02/19 07:10:43;;;;;;;3.42;1.40;;;;;;;;;;5094462;28;20105;-75
2022/02/19 07:13:09;;;;;;;2.70;1.10;;;;;;;;;;5093790;28;20028;-75
2022/02/19 07:15:35;;;;;;;1.83;0.90;;;;;;;;;;5094147;28;20024;-75
2022/02/19 07:18:03;;;;;;;3.08;1.10;;;;;;;;;;5093850;28;20039;-75
2022/02/19 07:20:34;;;;;;;2.95;1.10;;;;;;;;;;5087876;28;20141;-75
2022/02/19 07:23:00;;;;;;;1.88;0.98;;;;;;;;;;5073599;28;20025;-75
2022/02/19 07:25:26;;;;;;;2.53;1.10;;;;;;;;;;5073800;28;20111;-75
2022/02/19 07:27:54;;;;;;;2.75;1.05;;;;;;;;;;5072965;28;20037;-73
2022/02/19 07:30:21;;;;;;;3.70;1.23;;;;;;;;;;5073543;28;20528;-73
2022/02/19 07:32:48;;;;;;;2.08;0.93;;;;;;;;;;5073534;28;20036;-73
2022/02/19 07:35:14;;;;;;;2.58;1.13;;;;;;;;;;5073136;28;20082;-73
2022/02/19 07:37:41;;;;;;;2.58;1.02;;;;;;;;;;5093574;28;20038;-73
2022/02/19 07:40:08;;;;;;;3.30;1.05;;;;;;;;;;5093352;28;20020;-73
2022/02/19 07:42:34;;;;;;;2.25;1.05;;;;;;;;;;5082399;28;20399;-73
2022/02/19 07:45:00;;;;;;;2.63;1.23;;;;;;;;;;5073326;28;20058;-73
2022/02/19 07:47:30;;;;;;;4.15;1.20;;;;;;;;;;5073165;28;20438;-73
2022/02/19 07:58:22;;;;;;;2.15;0.95;;;;;;;;;;5073575;28;20043;-73
2022/02/19 08:00:56;;;;;;;2.85;1.20;;;;;;;;;;5073220;28;20027;-73
2022/02/19 08:03:23;;;;;;;2.67;0.90;;;;;;;;;;5073014;28;20514;-73
2022/02/19 08:05:49;;;;;;;3.88;1.33;;;;;;;;;;5073140;28;20045;-74
2022/02/19 08:08:16;;;;;;;2.20;1.00;;;;;;;;;;5073310;28;20020;-73
2022/02/19 08:10:43;;;;;;;3.42;1.30;;;;;;;;;;5073281;28;20082;-74
2022/02/19 08:13:13;;;;;;;3.03;1.17;;;;;;;;;;5073020;28;20024;-74
2022/02/19 08:15:39;;;;;;;3.95;1.27;;;;;;;;;;5072723;28;20029;-74
2022/02/19 08:18:08;;;;;;;2.80;1.00;;;;;;;;;;5072880;28;20024;-74
2022/02/19 08:20:36;;;;;;;3.70;1.00;;;;;;;;;;5079763;28;20591;-74
2022/02/19 08:23:02;;;;;;;3.53;1.30;;;;;;;;;;5093414;28;20097;-73
2022/02/19 08:25:29;;;;;;;2.72;0.80;;;;;;;;;;5074482;28;20087;-73
2022/02/19 08:27:55;;;;;;;3.30;0.98;;;;;;;;;;5093158;28;20525;-73
2022/02/19 08:30:22;;;;;;;2.67;1.08;;;;;;;;;;5093077;28;20107;-73
2022/02/19 08:32:48;;;;;;;1.83;0.82;;;;;;;;;;5092803;28;20368;-73
2022/02/19 08:35:15;;;;;;;3.17;1.20;;;;;;;;;;5093146;28;20046;-73
2022/02/19 08:37:41;;;;;;;2.58;1.10;;;;;;;;;;5054946;28;20031;-73
2022/02/19 08:40:09;;;;;;;2.92;1.17;;;;;;;;;;5072644;28;20020;-73
2022/02/19 08:42:35;;;;;;;2.90;1.13;;;;;;;;;;5083770;28;20418;-73
2022/02/19 08:45:03;;;;;;;3.60;1.00;;;;;;;;;;5092541;28;20025;-73
2022/02/19 08:47:30;;;;;;;4.07;1.20;;;;;;;;;;5093239;28;20024;-73
2022/02/19 08:49:58;;;;;;;3.33;1.05;;;;;;;;;;5092555;28;20024;-73
2022/02/19 08:52:24;;;;;;;1.90;0.93;;;;;;;;;;5092178;28;20024;-73
2022/02/19 08:54:50;;;;;;;3.55;1.20;;;;;;;;;;5074213;28;20031;-74
2022/02/19 08:57:17;;;;;;;3.00;1.30;;;;;;;;;;5092551;28;20487;-74
2022/02/19 08:59:43;;;;;;;1.92;0.80;;;;;;;;;;5092505;28;20016;-74
2022/02/19 09:02:09;;;;;;;3.40;1.17;;;;;;;;;;5092204;28;20020;-74
2022/02/19 09:04:35;;;;;;;3.50;1.20;;;;;;;;;;5092088;28;20021;-73
2022/02/19 09:07:01;;;;;;;3.10;1.17;;;;;;;;;;5092766;28;20035;-74
2022/02/19 09:09:28;;;;;;;2.42;1.10;;;;;;;;;;5092221;28;20031;-74
2022/02/19 09:11:54;;;;;;;2.30;0.98;;;;;;;;;;5091824;28;20403;-73
2022/02/19 09:14:22;;;;;;;2.38;1.02;;;;;;;;;;5074388;28;20048;-73
2022/02/19 09:16:48;;;;;;;2.88;1.00;;;;;;;;;;5092214;28;20043;-73
2022/02/19 09:19:14;;;;;;;2.83;1.10;;;;;;;;;;5092411;28;20035;-73
2022/02/19 09:21:43;;;;;;;4.53;1.42;;;;;;;;;;5075662;28;20020;-73
2022/02/19 09:24:09;;;;;;;2.92;1.30;;;;;;;;;;5071948;28;20468;-73
2022/02/19 09:26:35;;;;;;;2.10;0.98;;;;;;;;;;5071607;28;20025;-73
2022/02/19 09:29:01;;;;;;;4.65;1.00;;;;;;;;;;5071779;28;20025;-73
2022/02/19 09:31:27;;;;;;;2.80;1.27;;;;;;;;;;5071512;28;20479;-73
2022/02/19 09:33:54;;;;;;;1.83;0.85;;;;;;;;;;5072200;28;20047;-73
2022/02/19 09:36:20;;;;;;;2.75;1.13;;;;;;;;;;5080518;28;20104;-73
2022/02/19 09:38:48;;;;;;;1.80;0.80;;;;;;;;;;5074059;28;20028;-73
2022/02/19 09:41:14;;;;;;;2.17;0.70;;;;;;;;;;5091815;28;20031;-73
2022/02/19 09:43:41;;;;;;;2.83;0.98;;;;;;;;;;5051884;28;20029;-73
2022/02/19 09:46:07;;;;;;;1.98;0.98;;;;;;;;;;5051884;28;20025;-73
2022/02/19 09:48:34;;;;;;;2.90;1.20;;;;;;;;;;5052389;28;20479;-73
2022/02/19 09:51:00;;;;;;;2.08;1.02;;;;;;;;;;5033528;28;20037;-73
2022/02/19 09:53:27;;;;;;;3.25;1.10;;;;;;;;;;5054707;28;20036;-73
2022/02/19 09:55:53;;;;;;;3.53;1.00;;;;;;;;;;5055268;28;20029;-73
2022/02/19 09:58:19;;;;;;;2.90;1.23;;;;;;;;;;5055403;28;20029;-73
2022/02/19 10:00:46;;;;;;;2.72;1.13;;;;;;;;;;5055244;28;20052;-73
2022/02/19 10:03:23;;;;;;;2.97;0.98;;;;;;;;;;5055272;28;20071;-73
2022/02/19 10:05:50;;;;;;;2.00;0.95;;;;;;;;;;5055004;28;20064;-73
2022/02/19 10:08:16;;;;;;;4.13;1.13;;;;;;;;;;5055237;28;20029;-73
2022/02/19 10:10:49;;;;;;;2.92;1.05;;;;;;;;;;5055320;28;20055;-73
2022/02/19 10:13:15;;;;;;;;;;;;;;;;;;5055184;28;20495;-73
2022/02/19 10:15:46;;;;;;;2.20;1.05;;;;;;;;;;5037248;28;19947;-73
2022/02/19 10:18:42;;;;;;;3.28;1.00;;;;;;;;;;5054693;28;20040;-73
2022/02/19 10:21:16;;;;;;;2.42;1.10;;;;;;;;;;5056714;28;20123;-73
2022/02/19 10:23:43;;;;;;;3.38;0.93;;;;;;;;;;5094940;28;20017;-73
2022/02/19 10:26:09;;;;;;;2.25;1.00;;;;;;;;;;5094789;28;20028;-73
2022/02/19 10:28:35;;;;;;;4.28;1.10;;;;;;;;;;5076610;28;20062;-73
2022/02/19 10:31:11;;;;;;;2.33;1.10;;;;;;;;;;5094871;28;20028;-73
2022/02/19 10:33:39;;;;;;;3.42;1.25;;;;;;;;;;5094414;28;20061;-73
2022/02/19 10:36:13;;;;;;;3.35;1.08;;;;;;;;;;5088091;28;20169;-73
2022/02/19 10:38:52;;;;;;;4.75;1.45;;;;;;;;;;5074778;28;20107;-73
2022/02/19 10:41:18;;;;;;;2.50;1.20;;;;;;;;;;5074426;28;20036;-73
2022/02/19 10:43:44;;;;;;;4.95;1.48;;;;;;;;;;5094768;28;20084;-73
2022/02/19 10:46:11;;;;;;;7.93;1.88;;;;;;;;;;5094606;28;20031;-73
2022/02/19 10:48:38;;;;;;;6.20;1.70;;;;;;;;;;5094351;28;20047;-73
2022/02/19 10:51:08;;;;;;;5.85;1.70;;;;;;;;;;5094458;28;20024;-73
2022/02/19 10:53:36;;;;;;;4.30;1.42;;;;;;;;;;5093838;28;20177;-73
2022/02/19 10:56:09;;;;;;;5.95;1.20;;;;;;;;;;5076170;28;20035;-73
2022/02/19 10:58:35;;;;;;;12.68;2.30;;;;;;;;;;5094610;28;20028;-74
2022/02/19 11:01:03;;;;;;;3.55;1.60;;;;;;;;;;5094532;28;20040;-74
2022/02/19 11:03:30;;;;;;;5.28;1.65;;;;;;;;;;5092397;28;20078;-74
2022/02/19 11:05:57;;;;;;;5.25;1.70;;;;;;;;;;5093776;28;20507;-74
2022/02/19 11:08:23;;;;;;;5.40;1.60;;;;;;;;;;5094074;28;20028;-74
2022/02/19 11:10:50;;;;;;;6.80;1.85;;;;;;;;;;5094080;28;20020;-74
2022/02/19 11:13:17;;;;;;;5.60;1.58;;;;;;;;;;5093858;28;20457;-74
2022/02/19 11:15:44;;;;;;;6.13;1.90;;;;;;;;;;5093905;28;20027;-74
2022/02/19 11:18:10;;;;;;;6.28;1.45;;;;;;;;;;5093508;28;20032;-74
2022/02/19 11:20:36;;;;;;;4.18;1.25;;;;;;;;;;5068752;28;20387;-74
2022/02/19 11:23:03;;;;;;;5.20;1.63;;;;;;;;;;5073922;28;20028;-75
2022/02/19 11:25:29;;;;;;;5.72;1.35;;;;;;;;;;5073495;28;20024;-74
2022/02/19 11:27:58;;;;;;;3.78;1.40;;;;;;;;;;5073816;28;20395;-75
2022/02/19 11:30:27;;;;;;;4.82;1.17;;;;;;;;;;5073558;28;20395;-74
2022/02/19 11:32:54;;;;;;;3.60;1.40;;;;;;;;;;5073233;28;20036;-74
2022/02/19 11:35:32;;;;;;;5.57;1.33;;;;;;;;;;5073805;28;20023;-75
2022/02/19 11:37:59;;;;;;;5.03;1.42;;;;;;;;;;5075286;28;20118;-74
2022/02/19 11:40:25;;;;;;;5.47;2.03;;;;;;;;;;5093575;28;20020;-74
2022/02/19 11:42:55;;;;;;;4.43;1.33;;;;;;;;;;5080051;28;20024;-74
2022/02/19 11:45:25;;;;;;;5.32;1.27;;;;;;;;;;5073480;28;20162;-74
2022/02/19 11:47:54;;;;;;;5.30;1.63;;;;;;;;;;5073489;28;20158;-74
2022/02/19 11:50:24;;;;;;;5.25;1.80;;;;;;;;;;5055808;28;20107;-74
2022/02/19 11:53:09;;;;;;;4.78;1.63;;;;;;;;;;5073759;28;20399;-75
2022/02/19 11:55:35;;;;;;;2.70;1.33;;;;;;;;;;5055740;28;20013;-75
2022/02/19 11:58:12;;;;;;;3.40;1.45;;;;;;;;;;5073694;28;20490;-75
2022/02/19 12:00:44;;;;;;;4.25;1.42;;;;;;;;;;5073223;28;20024;-75
2022/02/19 12:03:26;;;;;;;4.35;1.48;;;;;;;;;;5073250;28;20024;-75
2022/02/19 12:06:19;;;;;;;6.63;1.80;;;;;;;;;;5072818;28;20044;-75
2022/02/19 12:08:48;;;;;;;7.25;1.83;;;;;;;;;;5050747;28;20029;-75
2022/02/19 12:11:18;;;;;;;3.08;1.40;;;;;;;;;;5073074;28;20487;-76
2022/02/19 12:13:45;;;;;;;4.35;1.40;;;;;;;;;;5072994;28;20099;-76
2022/02/19 12:16:30;;;;;;;5.22;1.58;;;;;;;;;;5072821;28;20031;-76
2022/02/19 12:19:00;;;;;;;4.68;1.30;;;;;;;;;;5072857;28;20394;-76
2022/02/19 12:21:33;;;;;;;3.78;1.33;;;;;;;;;;5086259;28;20028;-76
2022/02/19 12:24:11;;;;;;;4.83;1.50;;;;;;;;;;5093532;28;20024;-76
2022/02/19 12:27:08;;;;;;;2.78;1.25;;;;;;;;;;5093374;28;20257;-76
2022/02/19 12:29:36;;;;;;;3.75;1.55;;;;;;;;;;5073460;28;20044;-75
2022/02/19 12:32:07;;;;;;;3.70;1.42;;;;;;;;;;5074037;28;20020;-75
2022/02/19 12:34:35;;;;;;;4.40;1.50;;;;;;;;;;5092863;28;20506;-76
2022/02/19 12:37:12;;;;;;;2.53;1.05;;;;;;;;;;5077958;28;20029;-76
2022/02/19 12:39:45;;;;;;;3.28;1.23;;;;;;;;;;5072530;28;20024;-75
2022/02/19 12:42:21;;;;;;;4.07;1.45;;;;;;;;;;5079608;28;20020;-75
2022/02/19 12:44:48;;;;;;;2.28;1.10;;;;;;;;;;5092764;28;20031;-75
2022/02/19 12:47:18;;;;;;;2.80;1.23;;;;;;;;;;5092468;28;20039;-75
2022/02/19 12:49:44;;;;;;;4.22;1.65;;;;;;;;;;5074519;28;20031;-76
2022/02/19 12:52:10;;;;;;;3.58;1.30;;;;;;;;;;5092222;28;20483;-76
2022/02/19 12:54:38;;;;;;;5.93;1.92;;;;;;;;;;5092796;28;20020;-75
2022/02/19 12:57:05;;;;;;;4.43;1.55;;;;;;;;;;5092619;28;20032;-75
2022/02/19 12:59:35;;;;;;;4.53;1.35;;;;;;;;;;5092542;28;20106;-75
2022/02/19 13:02:02;;;;;;;2.97;1.23;;;;;;;;;;5092295;28;20020;-75
2022/02/19 13:04:28;;;;;;;3.03;1.25;;;;;;;;;;5092607;28;20070;-76
2022/02/19 13:06:54;;;;;;;2.00;1.25;;;;;;;;;;5092577;28;20028;-75
2022/02/19 13:09:21;;;;;;;2.80;1.40;;;;;;;;;;5092242;28;20032;-75
2022/02/19 13:11:49;;;;;;;2.22;1.23;;;;;;;;;;5091910;28;20448;-75
2022/02/19 13:14:15;;;;;;;2.63;1.15;;;;;;;;;;5092958;28;20051;-75
2022/02/19 13:16:55;;;;;;;1.60;0.80;;;;;;;;;;5093055;28;20035;-75
2022/02/19 13:19:21;;;;;;;2.15;1.08;;;;;;;;;;5073777;28;20021;-75
2022/02/19 13:21:47;;;;;;;2.80;1.20;;;;;;;;;;5075073;28;20048;-75
2022/02/19 13:24:16;;;;;;;2.38;1.05;;;;;;;;;;5071910;28;20028;-75
2022/02/19 13:26:43;;;;;;;3.50;1.38;;;;;;;;;;5073948;28;20036;-75
2022/02/19 13:29:09;;;;;;;3.70;1.15;;;;;;;;;;5075766;28;20031;-75
2022/02/19 13:31:37;;;;;;;2.42;1.15;;;;;;;;;;5075455;28;20115;-75
2022/02/19 13:34:03;;;;;;;2.38;1.05;;;;;;;;;;5075748;28;20040;-75
2022/02/19 13:36:32;;;;;;;4.45;1.30;;;;;;;;;;5085812;28;20039;-75
2022/02/19 13:38:58;;;;;;;1.90;1.08;;;;;;;;;;5095997;28;20024;-75
2022/02/19 13:41:24;;;;;;;3.53;1.13;;;;;;;;;;5093967;28;20042;-75
2022/02/19 13:44:00;;;;;;;3.75;1.10;;;;;;;;;;5057719;28;20024;-75
2022/02/19 13:46:27;;;;;;;2.53;0.93;;;;;;;;;;5075513;28;20020;-75
2022/02/19 13:48:55;;;;;;;2.45;1.02;;;;;;;;;;5075763;28;20029;-76
2022/02/19 13:51:30;;;;;;;3.85;1.10;;;;;;;;;;5075014;28;20032;-75
2022/02/19 13:54:12;;;;;;;2.58;1.00;;;;;;;;;;5075627;28;20029;-75
2022/02/19 13:56:39;;;;;;;1.48;0.80;;;;;;;;;;5075477;28;20024;-75
2022/02/19 13:59:05;;;;;;;2.10;1.15;;;;;;;;;;5057509;28;20063;-75
2022/02/19 14:01:41;;;;;;;2.03;0.95;;;;;;;;;;5074649;28;20487;-76
2022/02/19 14:04:07;;;;;;;1.50;0.65;;;;;;;;;;5075478;28;20013;-76
2022/02/19 14:06:36;;;;;;;2.53;0.88;;;;;;;;;;5074887;28;20056;-75
2022/02/19 14:09:17;;;;;;;3.10;1.33;;;;;;;;;;5075347;28;20475;-76
2022/02/19 14:11:51;;;;;;;2.20;0.85;;;;;;;;;;5074666;28;20031;-75
2022/02/19 14:14:17;;;;;;;;;;;;;;;;;;5075682;28;20027;-75
2022/02/19 14:16:43;;;;;;;2.50;1.00;;;;;;;;;;5075744;28;19904;-76
2022/02/19 14:19:11;;;;;;;2.55;1.00;;;;;;;;;;5074968;28;20032;-73
2022/02/19 14:21:38;;;;;;;2.05;0.90;;;;;;;;;;5089803;28;20541;-74
2022/02/19 14:24:10;;;;;;;1.38;0.80;;;;;;;;;;5095329;28;20015;-73
2022/02/19 14:26:36;;;;;;;2.13;0.90;;;;;;;;;;5095647;28;20494;-74
2022/02/19 14:29:03;;;;;;;2.08;0.90;;;;;;;;;;5095322;28;20036;-74
2022/02/19 14:31:29;;;;;;;2.25;0.80;;;;;;;;;;5094683;28;20028;-74
2022/02/19 14:33:55;;;;;;;1.75;0.80;;;;;;;;;;5094871;28;20390;-74
2022/02/19 14:36:21;;;;;;;1.98;1.02;;;;;;;;;;5067932;28;20027;-73
2022/02/19 14:38:47;;;;;;;3.63;1.02;;;;;;;;;;5074793;28;20497;-74
2022/02/19 14:41:14;;;;;;;1.77;0.90;;;;;;;;;;5074657;28;20095;-74
2022/02/19 14:43:41;;;;;;;2.33;0.82;;;;;;;;;;5094360;28;20110;-74
2022/02/19 14:46:07;;;;;;;1.88;0.70;;;;;;;;;;5094537;28;20025;-74
2022/02/19 14:48:33;;;;;;;1.92;0.80;;;;;;;;;;5094930;28;20024;-74
2022/02/19 14:51:01;;;;;;;1.30;0.80;;;;;;;;;;5095037;28;20353;-74
2022/02/19 14:53:27;;;;;;;4.00;0.70;;;;;;;;;;5093946;28;20052;-74